sensor_id;sensor_type;location;lat;lon;timestamp;pressure;altitude;pressure_sealevel;temperature;humidity
68758;BME280;55747;51.998;4.466;2022-09-09T00:02:20;56438.56;;;-144.48;87.38
68758;BME280;55747;51.998;4.466;2022-09-09T00:05:34;56403.41;;;-144.48;87.67
68758;BME280;55747;51.998;4.466;2022-09-09T00:07:43;56440.63;;;-144.48;88.12
68758;BME280;55747;51.998;4.466;2022-09-09T00:10:16;56453.03;;;-144.48;88.00
68758;BME280;55747;51.998;4.466;2022-09-09T00:15:32;56430.28;;;-144.48;88.40
68758;BME280;55747;51.998;4.466;2022-09-09T00:18:15;56444.78;;;-144.48;88.81
68758;BME280;55747;51.998;4.466;2022-09-09T00:20:49;56432.38;;;-144.48;89.06
68758;BME280;55747;51.998;4.466;2022-09-09T00:23:30;56424.09;;;-144.48;89.12
68758;BME280;55747;51.998;4.466;2022-09-09T00:26:04;56428.22;;;-144.48;89.51
68758;BME280;55747;51.998;4.466;2022-09-09T00:28:39;56450.97;;;-144.48;89.55
68758;BME280;55747;51.998;4.466;2022-09-09T00:31:13;56430.28;;;-144.48;89.82
68758;BME280;55747;51.998;4.466;2022-09-09T00:33:39;56417.91;;;-144.48;90.00
68758;BME280;55747;51.998;4.466;2022-09-09T00:36:12;56448.91;;;-144.48;90.19
68758;BME280;55747;51.998;4.466;2022-09-09T00:38:49;56450.97;;;-144.48;90.31
68758;BME280;55747;51.998;4.466;2022-09-09T00:44:03;56459.25;;;-144.48;90.91
68758;BME280;55747;51.998;4.466;2022-09-09T00:55:26;56475.78;;;-144.48;91.72
68758;BME280;55747;51.998;4.466;2022-09-09T00:57:57;56440.63;;;-144.48;91.87
68758;BME280;55747;51.998;4.466;2022-09-09T01:00:37;56477.84;;;-144.48;91.96
68758;BME280;55747;51.998;4.466;2022-09-09T01:03:21;56459.25;;;-144.48;92.13
68758;BME280;55747;51.998;4.466;2022-09-09T01:06:04;56459.25;;;-144.48;92.33
68758;BME280;55747;51.998;4.466;2022-09-09T01:08:37;56463.38;;;-144.48;92.35
68758;BME280;55747;51.998;4.466;2022-09-09T01:11:13;56442.69;;;-144.48;92.31
68758;BME280;55747;51.998;4.466;2022-09-09T01:13:42;56457.19;;;-144.48;92.28
68758;BME280;55747;51.998;4.466;2022-09-09T01:16:12;56442.69;;;-144.48;92.35
68758;BME280;55747;51.998;4.466;2022-09-09T01:18:45;56457.19;;;-144.48;92.29
68758;BME280;55747;51.998;4.466;2022-09-09T01:25:01;56488.19;;;-144.48;92.04
68758;BME280;55747;51.998;4.466;2022-09-09T01:27:28;56463.38;;;-144.48;91.96
68758;BME280;55747;51.998;4.466;2022-09-09T01:29:53;56434.44;;;-144.48;91.79
68758;BME280;55747;51.998;4.466;2022-09-09T01:32:46;56484.06;;;-144.48;91.67
68758;BME280;55747;51.998;4.466;2022-09-09T01:37:51;56475.78;;;-144.48;91.27
68758;BME280;55747;51.998;4.466;2022-09-09T01:40:17;56461.31;;;-144.48;91.32
68758;BME280;55747;51.998;4.466;2022-09-09T01:42:42;56475.78;;;-144.48;91.07
68758;BME280;55747;51.998;4.466;2022-09-09T01:45:08;56484.06;;;-144.48;90.93
68758;BME280;55747;51.998;4.466;2022-09-09T01:47:34;56465.44;;;-144.48;91.01
68758;BME280;55747;51.998;4.466;2022-09-09T01:50:01;56475.78;;;-144.48;91.04
68758;BME280;55747;51.998;4.466;2022-09-09T01:52:27;56484.06;;;-144.48;90.91
68758;BME280;55747;51.998;4.466;2022-09-09T01:54:53;56444.78;;;-144.48;90.57
68758;BME280;55747;51.998;4.466;2022-09-09T01:57:24;56475.78;;;-144.48;90.27
68758;BME280;55747;51.998;4.466;2022-09-09T02:00:08;56453.03;;;-144.48;90.24
68758;BME280;55747;51.998;4.466;2022-09-09T02:02:56;56475.78;;;-144.48;89.99
68758;BME280;55747;51.998;4.466;2022-09-09T02:05:41;56461.31;;;-144.48;90.15
68758;BME280;55747;51.998;4.466;2022-09-09T02:08:15;56471.66;;;-144.48;89.80
68758;BME280;55747;51.998;4.466;2022-09-09T02:10:50;56455.09;;;-144.48;89.54
68758;BME280;55747;51.998;4.466;2022-09-09T02:13:20;56494.38;;;-144.48;89.08
68758;BME280;55747;51.998;4.466;2022-09-09T02:15:57;56457.19;;;-144.48;88.81
68758;BME280;55747;51.998;4.466;2022-09-09T02:18:29;56461.31;;;-144.48;88.88
68758;BME280;55747;51.998;4.466;2022-09-09T02:20:56;56450.97;;;-144.48;88.79
68758;BME280;55747;51.998;4.466;2022-09-09T02:23:23;56463.38;;;-144.48;88.23
68758;BME280;55747;51.998;4.466;2022-09-09T02:25:49;56457.19;;;-144.48;87.88
68758;BME280;55747;51.998;4.466;2022-09-09T02:28:18;56469.56;;;-144.48;87.52
68758;BME280;55747;51.998;4.466;2022-09-09T02:30:48;56498.53;;;-144.48;87.22
68758;BME280;55747;51.998;4.466;2022-09-09T02:33:23;56459.25;;;-144.48;86.69
68758;BME280;55747;51.998;4.466;2022-09-09T02:35:51;56471.66;;;-144.48;86.21
68758;BME280;55747;51.998;4.466;2022-09-09T02:38:17;56477.84;;;-144.48;86.14
68758;BME280;55747;51.998;4.466;2022-09-09T02:40:42;56471.66;;;-144.48;86.41
68758;BME280;55747;51.998;4.466;2022-09-09T02:43:08;56477.84;;;-144.48;86.32
68758;BME280;55747;51.998;4.466;2022-09-09T02:45:57;56506.78;;;-144.48;86.59
68758;BME280;55747;51.998;4.466;2022-09-09T02:48:57;56484.06;;;-144.48;86.54
68758;BME280;55747;51.998;4.466;2022-09-09T02:51:24;56479.91;;;-144.48;86.09
68758;BME280;55747;51.998;4.466;2022-09-09T02:56:57;56463.38;;;-144.48;86.06
68758;BME280;55747;51.998;4.466;2022-09-09T02:59:26;56436.50;;;-144.48;85.95
68758;BME280;55747;51.998;4.466;2022-09-09T03:01:52;56481.97;;;-144.48;85.78
68758;BME280;55747;51.998;4.466;2022-09-09T03:04:18;56477.84;;;-144.48;85.73
68758;BME280;55747;51.998;4.466;2022-09-09T03:06:43;56494.38;;;-144.48;85.77
68758;BME280;55747;51.998;4.466;2022-09-09T03:09:09;56492.31;;;-144.48;85.98
68758;BME280;55747;51.998;4.466;2022-09-09T03:11:35;56508.84;;;-144.48;85.74
68758;BME280;55747;51.998;4.466;2022-09-09T03:14:01;56479.91;;;-144.48;85.41
68758;BME280;55747;51.998;4.466;2022-09-09T03:16:26;56498.53;;;-144.48;85.35
68758;BME280;55747;51.998;4.466;2022-09-09T03:18:52;56490.25;;;-144.48;85.29
68758;BME280;55747;51.998;4.466;2022-09-09T03:21:17;56504.72;;;-144.48;85.23
68758;BME280;55747;51.998;4.466;2022-09-09T03:23:43;56494.38;;;-144.48;84.85
68758;BME280;55747;51.998;4.466;2022-09-09T03:26:10;56467.50;;;-144.48;85.05
68758;BME280;55747;51.998;4.466;2022-09-09T03:28:35;56508.84;;;-144.48;85.27
68758;BME280;55747;51.998;4.466;2022-09-09T03:31:02;56465.44;;;-144.48;84.68
68758;BME280;55747;51.998;4.466;2022-09-09T03:33:28;56444.78;;;-144.48;84.71
68758;BME280;55747;51.998;4.466;2022-09-09T03:35:54;56477.84;;;-144.48;84.59
68758;BME280;55747;51.998;4.466;2022-09-09T03:38:22;56459.25;;;-144.48;84.58
68758;BME280;55747;51.998;4.466;2022-09-09T03:40:52;56473.72;;;-144.48;84.90
68758;BME280;55747;51.998;4.466;2022-09-09T03:43:29;56496.44;;;-144.48;84.35
68758;BME280;55747;51.998;4.466;2022-09-09T03:45:55;56461.31;;;-144.48;84.47
68758;BME280;55747;51.998;4.466;2022-09-09T03:48:23;56481.97;;;-144.48;84.11
68758;BME280;55747;51.998;4.466;2022-09-09T03:50:51;56436.50;;;-144.48;83.85
68758;BME280;55747;51.998;4.466;2022-09-09T03:53:19;56471.66;;;-144.48;83.58
68758;BME280;55747;51.998;4.466;2022-09-09T03:55:50;56475.78;;;-144.48;83.79
68758;BME280;55747;51.998;4.466;2022-09-09T03:58:16;56504.72;;;-144.48;83.84
68758;BME280;55747;51.998;4.466;2022-09-09T04:00:55;56477.84;;;-144.48;84.28
68758;BME280;55747;51.998;4.466;2022-09-09T04:03:21;56467.50;;;-144.48;84.44
68758;BME280;55747;51.998;4.466;2022-09-09T04:05:49;56444.78;;;-144.48;83.89
68758;BME280;55747;51.998;4.466;2022-09-09T04:08:14;56486.13;;;-144.48;84.03
68758;BME280;55747;51.998;4.466;2022-09-09T04:10:39;56477.84;;;-144.48;83.88
68758;BME280;55747;51.998;4.466;2022-09-09T04:13:05;56488.19;;;-144.48;83.98
68758;BME280;55747;51.998;4.466;2022-09-09T04:15:31;56457.19;;;-144.48;84.13
68758;BME280;55747;51.998;4.466;2022-09-09T04:17:57;56494.38;;;-144.48;83.98
68758;BME280;55747;51.998;4.466;2022-09-09T04:20:23;56455.09;;;-144.48;84.17
68758;BME280;55747;51.998;4.466;2022-09-09T04:22:49;56500.59;;;-144.48;84.23
68758;BME280;55747;51.998;4.466;2022-09-09T04:25:14;56494.38;;;-144.48;84.41
68758;BME280;55747;51.998;4.466;2022-09-09T04:27:40;56500.59;;;-144.48;84.54
68758;BME280;55747;51.998;4.466;2022-09-09T04:30:05;56490.25;;;-144.48;84.62
68758;BME280;55747;51.998;4.466;2022-09-09T04:32:33;56469.56;;;-144.48;84.79
68758;BME280;55747;51.998;4.466;2022-09-09T04:34:58;56515.06;;;-144.48;84.47
68758;BME280;55747;51.998;4.466;2022-09-09T04:37:23;56459.25;;;-144.48;84.64
68758;BME280;55747;51.998;4.466;2022-09-09T04:39:50;56465.44;;;-144.48;84.47
68758;BME280;55747;51.998;4.466;2022-09-09T04:42:15;56508.84;;;-144.48;84.46
68758;BME280;55747;51.998;4.466;2022-09-09T04:44:43;56500.59;;;-144.48;84.40
68758;BME280;55747;51.998;4.466;2022-09-09T04:47:09;56453.03;;;-144.48;84.64
68758;BME280;55747;51.998;4.466;2022-09-09T04:49:34;56486.13;;;-144.48;84.56
68758;BME280;55747;51.998;4.466;2022-09-09T04:52:01;56508.84;;;-144.48;84.66
68758;BME280;55747;51.998;4.466;2022-09-09T04:54:26;56463.38;;;-144.48;84.65
68758;BME280;55747;51.998;4.466;2022-09-09T04:56:53;56486.13;;;-144.48;84.44
68758;BME280;55747;51.998;4.466;2022-09-09T04:59:20;56471.66;;;-144.48;84.44
68758;BME280;55747;51.998;4.466;2022-09-09T05:01:45;56498.53;;;-144.48;84.36
68758;BME280;55747;51.998;4.466;2022-09-09T05:04:10;56459.25;;;-144.48;84.46
68758;BME280;55747;51.998;4.466;2022-09-09T05:06:36;56453.03;;;-144.48;84.54
68758;BME280;55747;51.998;4.466;2022-09-09T05:09:01;56492.31;;;-144.48;84.64
68758;BME280;55747;51.998;4.466;2022-09-09T05:11:29;56484.06;;;-144.48;84.87
68758;BME280;55747;51.998;4.466;2022-09-09T05:13:55;56467.50;;;-144.48;84.81
68758;BME280;55747;51.998;4.466;2022-09-09T05:16:21;56471.66;;;-144.48;84.65
68758;BME280;55747;51.998;4.466;2022-09-09T05:18:47;56494.38;;;-144.48;84.76
68758;BME280;55747;51.998;4.466;2022-09-09T05:21:15;56481.97;;;-144.48;84.76
68758;BME280;55747;51.998;4.466;2022-09-09T05:23:40;56471.66;;;-144.48;84.84
68758;BME280;55747;51.998;4.466;2022-09-09T05:26:08;56477.84;;;-144.48;84.61
68758;BME280;55747;51.998;4.466;2022-09-09T05:28:34;56473.72;;;-144.48;84.03
68758;BME280;55747;51.998;4.466;2022-09-09T05:31:03;56475.78;;;-144.48;84.00
68758;BME280;55747;51.998;4.466;2022-09-09T05:33:33;56506.78;;;-144.48;83.13
68758;BME280;55747;51.998;4.466;2022-09-09T05:36:05;56486.13;;;-144.48;83.15
68758;BME280;55747;51.998;4.466;2022-09-09T05:38:32;56494.38;;;-144.48;82.49
68758;BME280;55747;51.998;4.466;2022-09-09T05:41:01;56479.91;;;-144.48;82.68
68758;BME280;55747;51.998;4.466;2022-09-09T05:43:30;56490.25;;;-144.48;82.17
68758;BME280;55747;51.998;4.466;2022-09-09T05:46:05;56475.78;;;-144.48;81.46
68758;BME280;55747;51.998;4.466;2022-09-09T05:48:33;56463.38;;;-144.48;81.07
68758;BME280;55747;51.998;4.466;2022-09-09T05:50:59;56463.38;;;-144.48;80.69
68758;BME280;55747;51.998;4.466;2022-09-09T05:53:28;56502.66;;;-144.48;78.29
68758;BME280;55747;51.998;4.466;2022-09-09T05:55:59;56469.56;;;-144.48;74.20
68758;BME280;55747;51.998;4.466;2022-09-09T05:58:24;56479.91;;;-144.48;74.31
68758;BME280;55747;51.998;4.466;2022-09-09T06:00:50;56459.25;;;-144.48;74.77
68758;BME280;55747;51.998;4.466;2022-09-09T06:03:15;56457.19;;;-144.48;75.58
68758;BME280;55747;51.998;4.466;2022-09-09T06:05:42;56455.09;;;-144.48;75.71
68758;BME280;55747;51.998;4.466;2022-09-09T06:08:07;56440.63;;;-144.48;74.33
68758;BME280;55747;51.998;4.466;2022-09-09T06:10:32;56469.56;;;-144.48;75.91
68758;BME280;55747;51.998;4.466;2022-09-09T06:12:59;56490.25;;;-144.48;77.47
68758;BME280;55747;51.998;4.466;2022-09-09T06:15:24;56459.25;;;-144.48;78.77
68758;BME280;55747;51.998;4.466;2022-09-09T06:17:54;56465.44;;;-144.48;78.93
68758;BME280;55747;51.998;4.466;2022-09-09T06:20:20;56500.59;;;-144.48;78.37
68758;BME280;55747;51.998;4.466;2022-09-09T06:22:47;56475.78;;;-144.48;78.64
68758;BME280;55747;51.998;4.466;2022-09-09T06:25:14;56488.19;;;-144.48;79.06
68758;BME280;55747;51.998;4.466;2022-09-09T06:27:39;56465.44;;;-144.48;78.86
68758;BME280;55747;51.998;4.466;2022-09-09T06:30:06;56455.09;;;-144.48;78.84
68758;BME280;55747;51.998;4.466;2022-09-09T06:32:32;56455.09;;;-144.48;78.75
68758;BME280;55747;51.998;4.466;2022-09-09T06:35:01;56484.06;;;-144.48;79.14
68758;BME280;55747;51.998;4.466;2022-09-09T06:37:27;56496.44;;;-144.48;79.07
68758;BME280;55747;51.998;4.466;2022-09-09T06:39:52;56471.66;;;-144.48;78.93
68758;BME280;55747;51.998;4.466;2022-09-09T06:42:19;56490.25;;;-144.48;79.00
68758;BME280;55747;51.998;4.466;2022-09-09T06:44:44;56473.72;;;-144.48;78.67
68758;BME280;55747;51.998;4.466;2022-09-09T06:47:10;56488.19;;;-144.48;79.12
68758;BME280;55747;51.998;4.466;2022-09-09T06:49:36;56504.72;;;-144.48;79.30
68758;BME280;55747;51.998;4.466;2022-09-09T06:52:01;56490.25;;;-144.48;78.77
68758;BME280;55747;51.998;4.466;2022-09-09T06:54:26;56496.44;;;-144.48;78.45
68758;BME280;55747;51.998;4.466;2022-09-09T06:56:51;56492.31;;;-144.48;78.45
68758;BME280;55747;51.998;4.466;2022-09-09T06:59:17;56481.97;;;-144.48;78.69
68758;BME280;55747;51.998;4.466;2022-09-09T07:01:43;56459.25;;;-144.48;78.43
68758;BME280;55747;51.998;4.466;2022-09-09T07:04:17;56492.31;;;-144.48;78.05
68758;BME280;55747;51.998;4.466;2022-09-09T07:06:44;56457.19;;;-144.48;77.48
68758;BME280;55747;51.998;4.466;2022-09-09T07:09:13;56471.66;;;-144.48;77.72
68758;BME280;55747;51.998;4.466;2022-09-09T07:14:07;56477.84;;;-144.48;77.12
68758;BME280;55747;51.998;4.466;2022-09-09T07:16:33;56463.38;;;-144.48;77.55
68758;BME280;55747;51.998;4.466;2022-09-09T07:19:02;56517.13;;;-144.48;77.79
68758;BME280;55747;51.998;4.466;2022-09-09T07:21:29;56484.06;;;-144.48;77.69
68758;BME280;55747;51.998;4.466;2022-09-09T07:23:54;56457.19;;;-144.48;78.06
68758;BME280;55747;51.998;4.466;2022-09-09T07:26:22;56463.38;;;-144.48;77.99
68758;BME280;55747;51.998;4.466;2022-09-09T07:28:54;56490.25;;;-144.48;78.20
68758;BME280;55747;51.998;4.466;2022-09-09T07:31:24;56469.56;;;-144.48;78.39
68758;BME280;55747;51.998;4.466;2022-09-09T07:33:50;56457.19;;;-144.48;78.53
68758;BME280;55747;51.998;4.466;2022-09-09T07:36:23;56484.06;;;-144.48;78.35
68758;BME280;55747;51.998;4.466;2022-09-09T07:38:53;56448.91;;;-144.48;78.39
68758;BME280;55747;51.998;4.466;2022-09-09T07:41:41;56463.38;;;-144.48;78.61
68758;BME280;55747;51.998;4.466;2022-09-09T07:44:09;56457.19;;;-144.48;78.49
68758;BME280;55747;51.998;4.466;2022-09-09T07:46:36;56459.25;;;-144.48;78.32
68758;BME280;55747;51.998;4.466;2022-09-09T07:49:02;56457.19;;;-144.48;78.66
68758;BME280;55747;51.998;4.466;2022-09-09T07:51:30;56490.25;;;-144.48;77.69
68758;BME280;55747;51.998;4.466;2022-09-09T07:53:58;56523.34;;;-144.48;77.69
68758;BME280;55747;51.998;4.466;2022-09-09T07:56:25;56473.72;;;-144.48;77.33
68758;BME280;55747;51.998;4.466;2022-09-09T07:58:52;56496.44;;;-144.48;78.45
68758;BME280;55747;51.998;4.466;2022-09-09T08:01:27;56486.13;;;-144.48;78.10
68758;BME280;55747;51.998;4.466;2022-09-09T08:04:01;56442.69;;;-144.48;77.52
68758;BME280;55747;51.998;4.466;2022-09-09T08:06:28;56459.25;;;-144.48;77.55
68758;BME280;55747;51.998;4.466;2022-09-09T08:08:54;56502.66;;;-144.48;77.49
68758;BME280;55747;51.998;4.466;2022-09-09T08:11:22;56496.44;;;-144.48;77.64
68758;BME280;55747;51.998;4.466;2022-09-09T08:13:49;56496.44;;;-144.48;77.79
68758;BME280;55747;51.998;4.466;2022-09-09T08:16:23;56500.59;;;-144.48;76.71
68758;BME280;55747;51.998;4.466;2022-09-09T08:18:50;56488.19;;;-144.48;76.73
68758;BME280;55747;51.998;4.466;2022-09-09T08:21:27;56469.56;;;-144.48;76.69
68758;BME280;55747;51.998;4.466;2022-09-09T08:23:54;56463.38;;;-144.48;76.79
68758;BME280;55747;51.998;4.466;2022-09-09T08:26:21;56467.50;;;-144.48;76.90
68758;BME280;55747;51.998;4.466;2022-09-09T08:28:53;56455.09;;;-144.48;76.44
68758;BME280;55747;51.998;4.466;2022-09-09T08:31:26;56479.91;;;-144.48;76.39
68758;BME280;55747;51.998;4.466;2022-09-09T08:33:53;56492.31;;;-144.48;75.95
68758;BME280;55747;51.998;4.466;2022-09-09T08:36:20;56508.84;;;-144.48;76.49
68758;BME280;55747;51.998;4.466;2022-09-09T08:38:51;56500.59;;;-144.48;76.61
68758;BME280;55747;51.998;4.466;2022-09-09T08:41:52;56448.91;;;-144.48;77.09
68758;BME280;55747;51.998;4.466;2022-09-09T08:50:36;56448.91;;;-144.48;76.52
68758;BME280;55747;51.998;4.466;2022-09-09T08:55:44;56467.50;;;-144.48;76.28
68758;BME280;55747;51.998;4.466;2022-09-09T08:58:21;56475.78;;;-144.48;76.57
68758;BME280;55747;51.998;4.466;2022-09-09T09:00:53;56457.19;;;-144.48;76.49
68758;BME280;55747;51.998;4.466;2022-09-09T09:06:13;56455.09;;;-144.48;77.22
68758;BME280;55747;51.998;4.466;2022-09-09T09:09:11;56510.94;;;-144.48;75.66
68758;BME280;55747;51.998;4.466;2022-09-09T09:11:50;56484.06;;;-144.48;76.32
68758;BME280;55747;51.998;4.466;2022-09-09T09:14:27;56486.13;;;-144.48;76.55
68758;BME280;55747;51.998;4.466;2022-09-09T09:16:56;56467.50;;;-144.48;76.35
68758;BME280;55747;51.998;4.466;2022-09-09T09:19:23;56469.56;;;-144.48;76.25
68758;BME280;55747;51.998;4.466;2022-09-09T09:22:02;56496.44;;;-144.48;76.31
68758;BME280;55747;51.998;4.466;2022-09-09T09:27:14;56459.25;;;-144.48;76.41
68758;BME280;55747;51.998;4.466;2022-09-09T09:29:41;56448.91;;;-144.48;76.22
68758;BME280;55747;51.998;4.466;2022-09-09T09:32:13;56471.66;;;-144.48;76.50
68758;BME280;55747;51.998;4.466;2022-09-09T09:34:39;56496.44;;;-144.48;78.67
68758;BME280;55747;51.998;4.466;2022-09-09T09:37:16;56492.31;;;-144.48;79.15
68758;BME280;55747;51.998;4.466;2022-09-09T09:39:45;56488.19;;;-144.48;79.98
68758;BME280;55747;51.998;4.466;2022-09-09T09:42:12;56479.91;;;-144.48;80.64
68758;BME280;55747;51.998;4.466;2022-09-09T09:44:40;56481.97;;;-144.48;81.59
68758;BME280;55747;51.998;4.466;2022-09-09T09:47:12;56479.91;;;-144.48;81.69
68758;BME280;55747;51.998;4.466;2022-09-09T09:49:39;56475.78;;;-144.48;80.21
68758;BME280;55747;51.998;4.466;2022-09-09T09:52:05;56496.44;;;-144.48;79.84
68758;BME280;55747;51.998;4.466;2022-09-09T09:54:41;56461.31;;;-144.48;79.59
68758;BME280;55747;51.998;4.466;2022-09-09T09:57:16;56479.91;;;-144.48;79.77
68758;BME280;55747;51.998;4.466;2022-09-09T09:59:43;56492.31;;;-144.48;78.20
68758;BME280;55747;51.998;4.466;2022-09-09T10:02:16;56459.25;;;-144.48;78.29
68758;BME280;55747;51.998;4.466;2022-09-09T10:04:41;56479.91;;;-144.48;80.70
68758;BME280;55747;51.998;4.466;2022-09-09T10:07:18;56488.19;;;-144.48;83.50
68758;BME280;55747;51.998;4.466;2022-09-09T10:09:44;56486.13;;;-144.48;85.36
68758;BME280;55747;51.998;4.466;2022-09-09T10:20:18;56515.06;;;-144.48;87.79
68758;BME280;55747;51.998;4.466;2022-09-09T10:22:51;56469.56;;;-144.48;87.17
68758;BME280;55747;51.998;4.466;2022-09-09T10:28:22;56457.19;;;-144.48;83.26
68758;BME280;55747;51.998;4.466;2022-09-09T10:31:27;56461.31;;;-144.48;79.00
68758;BME280;55747;51.998;4.466;2022-09-09T10:33:50;56465.44;;;-144.48;78.56
68758;BME280;55747;51.998;4.466;2022-09-09T10:36:22;56457.19;;;-144.48;77.39
68758;BME280;55747;51.998;4.466;2022-09-09T10:39:06;56459.25;;;-144.48;77.44
68758;BME280;55747;51.998;4.466;2022-09-09T10:44:43;56450.97;;;-144.48;79.28
68758;BME280;55747;51.998;4.466;2022-09-09T10:52:39;56486.13;;;-144.48;74.61
68758;BME280;55747;51.998;4.466;2022-09-09T10:55:18;56481.97;;;-144.48;75.50
68758;BME280;55747;51.998;4.466;2022-09-09T10:57:52;56500.59;;;-144.48;75.54
68758;BME280;55747;51.998;4.466;2022-09-09T11:00:39;56428.22;;;-144.48;69.25
68758;BME280;55747;51.998;4.466;2022-09-09T11:03:06;56455.09;;;-144.48;66.33
68758;BME280;55747;51.998;4.466;2022-09-09T11:05:42;56467.50;;;-144.48;69.82
68758;BME280;55747;51.998;4.466;2022-09-09T11:08:26;56444.78;;;-144.48;70.60
68758;BME280;55747;51.998;4.466;2022-09-09T11:11:27;56428.22;;;-144.48;67.49
68758;BME280;55747;51.998;4.466;2022-09-09T11:14:03;56450.97;;;-144.48;66.96
68758;BME280;55747;51.998;4.466;2022-09-09T11:16:46;56428.22;;;-144.48;64.80
68758;BME280;55747;51.998;4.466;2022-09-09T11:19:28;56432.38;;;-144.48;64.87
68758;BME280;55747;51.998;4.466;2022-09-09T11:21:55;56438.56;;;-144.48;68.42
68758;BME280;55747;51.998;4.466;2022-09-09T11:24:36;56444.78;;;-144.48;69.27
68758;BME280;55747;51.998;4.466;2022-09-09T11:27:17;56457.19;;;-144.48;68.41
68758;BME280;55747;51.998;4.466;2022-09-09T11:40:35;56498.53;;;-144.48;72.80
68758;BME280;55747;51.998;4.466;2022-09-09T11:43:12;56450.97;;;-144.48;76.39
68758;BME280;55747;51.998;4.466;2022-09-09T11:45:38;56481.97;;;-144.48;80.10
68758;BME280;55747;51.998;4.466;2022-09-09T11:48:04;56471.66;;;-144.48;82.35
68758;BME280;55747;51.998;4.466;2022-09-09T11:50:37;56453.03;;;-144.48;83.39
68758;BME280;55747;51.998;4.466;2022-09-09T11:53:19;56494.38;;;-144.48;85.54
68758;BME280;55747;51.998;4.466;2022-09-09T11:55:59;56479.91;;;-144.48;87.24
68758;BME280;55747;51.998;4.466;2022-09-09T11:58:27;56457.19;;;-144.48;88.53
68758;BME280;55747;51.998;4.466;2022-09-09T12:00:57;56461.31;;;-144.48;89.53
68758;BME280;55747;51.998;4.466;2022-09-09T12:03:48;56486.13;;;-144.48;89.96
68758;BME280;55747;51.998;4.466;2022-09-09T12:08:43;56471.66;;;-144.48;90.98
68758;BME280;55747;51.998;4.466;2022-09-09T12:11:12;56486.13;;;-144.48;91.05
68758;BME280;55747;51.998;4.466;2022-09-09T12:13:58;56486.13;;;-144.48;91.06
68758;BME280;55747;51.998;4.466;2022-09-09T12:16:36;56475.78;;;-144.48;90.07
68758;BME280;55747;51.998;4.466;2022-09-09T12:19:23;56471.66;;;-144.48;89.47
68758;BME280;55747;51.998;4.466;2022-09-09T12:25:05;56486.13;;;-144.48;87.77
68758;BME280;55747;51.998;4.466;2022-09-09T12:27:41;56481.97;;;-144.48;87.25
68758;BME280;55747;51.998;4.466;2022-09-09T12:30:12;56494.38;;;-144.48;87.53
68758;BME280;55747;51.998;4.466;2022-09-09T12:32:39;56502.66;;;-144.48;86.43
68758;BME280;55747;51.998;4.466;2022-09-09T12:35:19;56479.91;;;-144.48;85.32
68758;BME280;55747;51.998;4.466;2022-09-09T12:37:52;56477.84;;;-144.48;84.03
68758;BME280;55747;51.998;4.466;2022-09-09T12:40:24;56448.91;;;-144.48;83.71
68758;BME280;55747;51.998;4.466;2022-09-09T12:42:50;56502.66;;;-144.48;83.45
68758;BME280;55747;51.998;4.466;2022-09-09T12:45:24;56475.78;;;-144.48;82.92
68758;BME280;55747;51.998;4.466;2022-09-09T12:48:00;56498.53;;;-144.48;83.94
68758;BME280;55747;51.998;4.466;2022-09-09T12:50:30;56508.84;;;-144.48;83.89
68758;BME280;55747;51.998;4.466;2022-09-09T12:53:21;56479.91;;;-144.48;84.14
68758;BME280;55747;51.998;4.466;2022-09-09T12:56:02;56490.25;;;-144.48;82.92
68758;BME280;55747;51.998;4.466;2022-09-09T12:58:29;56490.25;;;-144.48;81.94
68758;BME280;55747;51.998;4.466;2022-09-09T13:00:58;56469.56;;;-144.48;81.46
68758;BME280;55747;51.998;4.466;2022-09-09T13:03:25;56484.06;;;-144.48;81.57
68758;BME280;55747;51.998;4.466;2022-09-09T13:05:51;56469.56;;;-144.48;78.06
68758;BME280;55747;51.998;4.466;2022-09-09T13:08:18;56475.78;;;-144.48;77.80
68758;BME280;55747;51.998;4.466;2022-09-09T13:10:59;56469.56;;;-144.48;76.04
68758;BME280;55747;51.998;4.466;2022-09-09T13:13:33;56442.69;;;-144.48;73.79
68758;BME280;55747;51.998;4.466;2022-09-09T13:16:00;56467.50;;;-144.48;71.38
68758;BME280;55747;51.998;4.466;2022-09-09T13:18:33;56450.97;;;-144.48;71.03
68758;BME280;55747;51.998;4.466;2022-09-09T13:20:59;56463.38;;;-144.48;72.00
68758;BME280;55747;51.998;4.466;2022-09-09T13:23:33;56434.44;;;-144.48;73.72
68758;BME280;55747;51.998;4.466;2022-09-09T13:26:03;56459.25;;;-144.48;74.36
68758;BME280;55747;51.998;4.466;2022-09-09T13:28:30;56432.38;;;-144.48;73.92
68758;BME280;55747;51.998;4.466;2022-09-09T13:30:58;56448.91;;;-144.48;74.36
68758;BME280;55747;51.998;4.466;2022-09-09T13:33:39;56477.84;;;-144.48;74.70
68758;BME280;55747;51.998;4.466;2022-09-09T13:36:07;56448.91;;;-144.48;75.13
68758;BME280;55747;51.998;4.466;2022-09-09T13:39:12;56471.66;;;-144.48;75.49
68758;BME280;55747;51.998;4.466;2022-09-09T13:41:42;56481.97;;;-144.48;76.02
68758;BME280;55747;51.998;4.466;2022-09-09T13:44:24;56471.66;;;-144.48;79.78
68758;BME280;55747;51.998;4.466;2022-09-09T13:49:28;56515.06;;;-144.48;85.16
68758;BME280;55747;51.998;4.466;2022-09-09T13:52:13;56498.53;;;-144.48;85.74
68758;BME280;55747;51.998;4.466;2022-09-09T13:54:40;56488.19;;;-144.48;87.05
68758;BME280;55747;51.998;4.466;2022-09-09T13:57:12;56475.78;;;-144.48;88.38
68758;BME280;55747;51.998;4.466;2022-09-09T13:59:40;56508.84;;;-144.48;88.97
68758;BME280;55747;51.998;4.466;2022-09-09T14:02:06;56477.84;;;-144.48;89.20
68758;BME280;55747;51.998;4.466;2022-09-09T14:04:32;56469.56;;;-144.48;89.84
68758;BME280;55747;51.998;4.466;2022-09-09T14:06:57;56510.94;;;-144.48;90.30
68758;BME280;55747;51.998;4.466;2022-09-09T14:09:23;56488.19;;;-144.48;90.36
68758;BME280;55747;51.998;4.466;2022-09-09T14:11:48;56475.78;;;-144.48;90.03
68758;BME280;55747;51.998;4.466;2022-09-09T14:14:13;56502.66;;;-144.48;89.02
68758;BME280;55747;51.998;4.466;2022-09-09T14:16:39;56475.78;;;-144.48;88.33
68758;BME280;55747;51.998;4.466;2022-09-09T14:19:04;56488.19;;;-144.48;86.04